Time;durP1;ratioP1;P1;durP2;ratioP2;P2;SDS_P1;SDS_P2;PMS_P1;PMS_P2;Temp;Humidity;BMP_temperature;BMP_pressure;BME280_temperature;BME280_humidity;BME280_pressure;Samples;Min_cycle;Max_cycle;Signal;HPM_P1;HPM_P2
2022/06/01 00:00:19;;;;;;;0.13;0.13;;;15.30;99.90;;;;;;4976292;28;20040;-71
2022/06/01 00:02:45;;;;;;;0.30;0.30;;;15.10;99.90;;;;;;4978213;28;20038;-71
2022/06/01 00:05:10;;;;;;;0.10;0.10;;;15.10;99.90;;;;;;4976502;28;20109;-71
2022/06/01 00:07:36;;;;;;;0.10;0.10;;;15.10;99.90;;;;;;4976460;28;20417;-71
2022/06/01 00:10:03;;;;;;;0.22;0.22;;;14.90;99.90;;;;;;4992922;28;20026;-71
2022/06/01 00:12:30;;;;;;;0.00;0.00;;;14.70;99.90;;;;;;4960135;28;20031;-71
2022/06/01 00:14:56;;;;;;;0.10;0.10;;;14.70;99.90;;;;;;4993638;28;20045;-71
2022/06/01 00:17:22;;;;;;;0.05;0.05;;;14.70;99.90;;;;;;4976668;28;20070;-71
2022/06/01 00:19:48;;;;;;;0.40;0.25;;;14.70;99.90;;;;;;4993336;28;20054;-71
2022/06/01 00:22:17;;;;;;;0.20;0.20;;;14.70;99.90;;;;;;4992896;28;20026;-71
2022/06/01 00:24:45;;;;;;;0.10;0.10;;;14.60;99.90;;;;;;4993413;28;20092;-71
2022/06/01 00:27:13;;;;;;;0.68;0.68;;;14.60;99.90;;;;;;4993525;28;20072;-71
2022/06/01 00:29:39;;;;;;;0.00;0.00;;;14.60;99.90;;;;;;4975534;28;20060;-71
2022/06/01 00:32:08;;;;;;;0.17;0.15;;;14.60;99.90;;;;;;4976043;28;20026;-71
2022/06/01 00:34:34;;;;;;;0.63;0.63;;;14.50;99.90;;;;;;4975795;28;20034;-71
2022/06/01 00:37:00;;;;;;;0.00;0.00;;;14.40;99.90;;;;;;4975924;28;20054;-71
2022/06/01 00:39:26;;;;;;;0.00;0.00;;;14.30;99.90;;;;;;4992591;28;20034;-71
2022/06/01 00:41:52;;;;;;;0.00;0.00;;;14.20;99.90;;;;;;4976947;28;20036;-70
2022/06/01 00:44:17;;;;;;;0.20;0.20;;;14.20;99.90;;;;;;4977507;28;20042;-71
2022/06/01 00:46:43;;;;;;;0.10;0.10;;;14.00;99.90;;;;;;4975813;28;20027;-71
2022/06/01 00:49:20;;;;;;;1.27;0.85;;;13.70;99.90;;;;;;4992430;28;20113;-71
2022/06/01 00:51:48;;;;;;;0.00;0.00;;;13.70;99.90;;;;;;4976057;28;20033;-71
2022/06/01 00:54:16;;;;;;;0.25;0.25;;;13.80;99.90;;;;;;4993077;28;20030;-71
2022/06/01 00:56:49;;;;;;;0.35;0.35;;;13.90;99.90;;;;;;4975580;28;20063;-71
2022/06/01 00:59:21;;;;;;;1.13;0.35;;;13.90;99.90;;;;;;4975234;28;20486;-71
2022/06/01 01:01:49;;;;;;;0.70;0.32;;;13.90;99.90;;;;;;4975938;28;20037;-71
2022/06/01 01:04:15;;;;;;;0.40;0.40;;;13.90;99.90;;;;;;4975771;28;20124;-71
2022/06/01 01:06:43;;;;;;;0.32;0.10;;;14.00;99.90;;;;;;5000241;28;20508;-71
2022/06/01 01:09:11;;;;;;;0.47;0.47;;;14.10;99.90;;;;;;4985197;28;20035;-71
2022/06/01 01:12:06;;;;;;;0.00;0.00;;;14.00;99.90;;;;;;4986129;28;20033;-71
2022/06/01 01:14:40;;;;;;;0.32;0.22;;;14.00;99.90;;;;;;5011816;28;20025;-71
2022/06/01 01:17:06;;;;;;;0.30;0.30;;;14.10;99.90;;;;;;4975914;28;20154;-71
2022/06/01 01:19:54;;;;;;;0.32;0.32;;;14.10;99.90;;;;;;4991559;28;20117;-71
2022/06/01 01:23:06;;;;;;;0.10;0.10;;;14.00;99.90;;;;;;4975176;28;20545;-71
2022/06/01 01:25:35;;;;;;;2.08;1.08;;;13.90;99.90;;;;;;5011797;28;20042;-71
2022/06/01 01:28:04;;;;;;;0.52;0.52;;;13.90;99.90;;;;;;4994678;28;20084;-71
2022/06/01 01:30:51;;;;;;;0.00;0.00;;;13.90;99.90;;;;;;4994197;28;20040;-71
2022/06/01 01:33:23;;;;;;;31.42;1.30;;;13.90;99.90;;;;;;4996132;28;20083;-71
2022/06/01 01:35:56;;;;;;;0.22;0.13;;;13.60;99.90;;;;;;4994347;28;20053;-71
2022/06/01 01:38:31;;;;;;;0.10;0.10;;;13.40;99.90;;;;;;4994399;28;20041;-71
2022/06/01 01:41:34;;;;;;;0.00;0.00;;;13.50;99.90;;;;;;4994324;28;20054;-71
2022/06/01 01:44:04;;;;;;;0.20;0.20;;;13.40;99.90;;;;;;4994001;28;20409;-71
2022/06/01 01:46:30;;;;;;;1.20;0.57;;;13.50;99.90;;;;;;4994388;28;20148;-71
2022/06/01 01:48:56;;;;;;;0.40;0.40;;;13.50;99.90;;;;;;5014673;28;20022;-71
2022/06/01 01:51:25;;;;;;;0.00;0.00;;;13.60;99.90;;;;;;5011826;28;20034;-71
2022/06/01 01:53:53;;;;;;;0.93;0.35;;;13.60;99.90;;;;;;4994030;28;20026;-71
2022/06/01 01:57:00;;;;;;;0.20;0.17;;;13.70;99.90;;;;;;4994176;28;20044;-71
2022/06/01 02:00:07;;;;;;;0.10;0.10;;;13.70;99.90;;;;;;5011048;28;20557;-71
2022/06/01 02:03:15;;;;;;;0.10;0.10;;;13.80;99.90;;;;;;4995409;28;20037;-71
2022/06/01 02:06:28;;;;;;;0.10;0.10;;;13.80;99.90;;;;;;4996372;28;20026;-71
2022/06/01 02:09:09;;;;;;;0.20;0.20;;;13.70;99.90;;;;;;5009430;28;20041;-71
2022/06/01 02:14:55;;;;;;;0.50;0.50;;;13.70;99.90;;;;;;5008788;28;20078;-71
2022/06/01 02:17:33;;;;;;;0.73;0.47;;;13.70;99.90;;;;;;4991516;28;20065;-71
2022/06/01 02:20:11;;;;;;;3.58;0.38;;;13.30;99.90;;;;;;4974819;28;20121;-71
2022/06/01 02:22:42;;;;;;;0.47;0.47;;;13.20;99.90;;;;;;4975123;28;20110;-71
2022/06/01 02:25:10;;;;;;;;;;;13.20;99.90;;;;;;4991515;28;20156;-71
2022/06/01 02:27:38;;;;;;;0.10;0.10;;;13.30;99.90;;;;;;4974084;28;20277;-71
2022/06/01 02:30:17;;;;;;;0.38;0.32;;;13.50;99.90;;;;;;4973268;28;20140;-70
2022/06/01 02:32:46;;;;;;;0.65;0.63;;;13.60;99.90;;;;;;4974267;28;20049;-70
2022/06/01 02:35:16;;;;;;;0.20;0.20;;;13.60;99.90;;;;;;4974221;28;20030;-70
2022/06/01 02:37:46;;;;;;;0.43;0.43;;;13.60;99.90;;;;;;4974265;28;20081;-70
2022/06/01 02:40:19;;;;;;;1.08;0.82;;;13.60;99.90;;;;;;4973588;28;20386;-70
2022/06/01 02:42:51;;;;;;;1.40;0.82;;;13.50;99.90;;;;;;4974302;28;20060;-70
2022/06/01 02:45:20;;;;;;;0.80;0.52;;;13.40;99.90;;;;;;4990496;28;20109;-70
2022/06/01 02:47:48;;;;;;;1.65;1.55;;;13.40;99.90;;;;;;4973910;28;20126;-70
2022/06/01 02:50:23;;;;;;;1.75;1.08;;;13.30;99.90;;;;;;4973192;28;20037;-70
2022/06/01 02:52:49;;;;;;;1.08;0.85;;;13.40;99.90;;;;;;4974023;28;20064;-70
2022/06/01 02:55:17;;;;;;;0.10;0.10;;;13.40;99.90;;;;;;4977469;28;20117;-70
2022/06/01 02:57:44;;;;;;;0.47;0.47;;;13.40;99.90;;;;;;4973590;28;20037;-69
2022/06/01 03:00:19;;;;;;;0.10;0.10;;;13.40;99.90;;;;;;4972998;28;20049;-71
2022/06/01 03:02:51;;;;;;;0.00;0.00;;;13.40;99.90;;;;;;4990922;28;20041;-71
2022/06/01 03:05:20;;;;;;;0.60;0.38;;;13.50;99.90;;;;;;4990868;28;20165;-71
2022/06/01 03:07:46;;;;;;;0.88;0.70;;;13.50;99.90;;;;;;4973848;28;20022;-71
2022/06/01 03:10:12;;;;;;;0.20;0.20;;;13.40;99.90;;;;;;4990015;28;20169;-71
2022/06/01 03:12:39;;;;;;;0.25;0.25;;;13.40;99.90;;;;;;4990553;28;20027;-71
2022/06/01 03:15:08;;;;;;;0.00;0.00;;;13.40;99.90;;;;;;4997344;28;20029;-71
2022/06/01 03:17:35;;;;;;;0.00;0.00;;;13.50;99.90;;;;;;5010378;28;20032;-71
2022/06/01 03:20:02;;;;;;;0.00;0.00;;;13.40;99.90;;;;;;5009573;28;20045;-71
2022/06/01 03:22:28;;;;;;;0.20;0.20;;;13.50;99.90;;;;;;4993243;28;20490;-71
2022/06/01 03:24:53;;;;;;;0.20;0.20;;;13.40;99.90;;;;;;5009969;28;20088;-71
2022/06/01 03:27:19;;;;;;;0.00;0.00;;;13.30;99.90;;;;;;5010171;28;20475;-71
2022/06/01 03:29:45;;;;;;;0.10;0.10;;;13.30;99.90;;;;;;5009563;28;20032;-71
2022/06/01 03:32:12;;;;;;;2.72;0.60;;;13.40;99.90;;;;;;4976537;28;20068;-71
2022/06/01 03:34:38;;;;;;;0.00;0.00;;;13.30;99.90;;;;;;5009873;28;20490;-71
2022/06/01 03:37:04;;;;;;;0.10;0.10;;;13.40;99.90;;;;;;5010166;28;20621;-71
2022/06/01 03:39:30;;;;;;;0.10;0.10;;;13.20;99.90;;;;;;5009208;28;20022;-71
2022/06/01 03:41:56;;;;;;;0.10;0.10;;;13.30;99.90;;;;;;5005896;28;20032;-71
2022/06/01 03:47:09;;;;;;;1.25;1.15;;;13.20;99.90;;;;;;4959092;28;20038;-71
2022/06/01 03:49:35;;;;;;;0.63;0.63;;;12.90;99.90;;;;;;4969752;28;20034;-71
2022/06/01 03:52:02;;;;;;;0.10;0.10;;;13.00;99.90;;;;;;4965252;28;20081;-72
2022/06/01 03:54:28;;;;;;;0.20;0.20;;;13.00;99.90;;;;;;4978160;28;20475;-69
2022/06/01 03:56:54;;;;;;;0.10;0.10;;;13.00;99.90;;;;;;4980920;28;20031;-69
2022/06/01 03:59:20;;;;;;;1.65;0.88;;;13.00;99.90;;;;;;4972552;28;20045;-68
2022/06/01 04:01:46;;;;;;;0.28;0.28;;;13.10;99.90;;;;;;4983963;28;20398;-69
2022/06/01 04:04:11;;;;;;;0.30;0.30;;;13.10;99.90;;;;;;4988436;28;20023;-69
2022/06/01 04:06:37;;;;;;;0.55;0.38;;;13.10;99.90;;;;;;4981528;28;20037;-69
2022/06/01 04:09:03;;;;;;;0.30;0.30;;;12.90;99.90;;;;;;4973473;28;20097;-69
2022/06/01 04:11:29;;;;;;;0.85;0.52;;;12.70;99.90;;;;;;4979144;28;20031;-69
2022/06/01 04:13:55;;;;;;;0.15;0.15;;;12.80;99.90;;;;;;4976367;28;20038;-68
2022/06/01 04:16:20;;;;;;;0.32;0.32;;;12.80;99.90;;;;;;4990379;28;20502;-69
2022/06/01 04:18:47;;;;;;;0.28;0.28;;;12.80;99.90;;;;;;4992718;28;20693;-69
2022/06/01 04:21:16;;;;;;;0.45;0.45;;;12.80;99.90;;;;;;4992095;28;20049;-70
2022/06/01 04:23:42;;;;;;;0.10;0.10;;;12.80;99.90;;;;;;4991982;28;20031;-70
2022/06/01 04:26:07;;;;;;;1.52;1.42;;;12.50;99.90;;;;;;4975364;28;20035;-70
2022/06/01 04:28:33;;;;;;;0.22;0.22;;;12.20;99.90;;;;;;4992505;28;20026;-69
2022/06/01 04:30:59;;;;;;;0.10;0.10;;;12.30;99.90;;;;;;4993501;28;20056;-70
2022/06/01 04:33:27;;;;;;;0.00;0.00;;;12.30;99.90;;;;;;4984130;28;20030;-70
2022/06/01 04:35:53;;;;;;;0.93;0.77;;;12.30;99.90;;;;;;4977711;28;20066;-69
2022/06/01 04:38:19;;;;;;;0.25;0.25;;;12.50;99.90;;;;;;4988733;28;20209;-70
2022/06/01 04:40:50;;;;;;;0.32;0.32;;;12.60;99.90;;;;;;4990704;28;20629;-71
2022/06/01 04:43:20;;;;;;;0.50;0.50;;;12.60;99.90;;;;;;4980659;28;20396;-72
2022/06/01 04:45:46;;;;;;;0.20;0.20;;;12.80;99.90;;;;;;4991908;28;20034;-71
2022/06/01 04:48:11;;;;;;;0.55;0.55;;;12.90;99.90;;;;;;5007759;28;20080;-71
2022/06/01 04:50:44;;;;;;;0.10;0.10;;;13.00;99.90;;;;;;4992242;28;20026;-71
2022/06/01 04:53:16;;;;;;;1.77;1.58;;;13.00;99.90;;;;;;4991434;28;20117;-71
2022/06/01 04:55:45;;;;;;;2.05;1.08;;;13.10;99.90;;;;;;4992298;28;20031;-72
2022/06/01 04:58:12;;;;;;;2.40;0.63;;;13.20;99.90;;;;;;4991319;28;20030;-73
2022/06/01 05:00:40;;;;;;;0.30;0.30;;;13.30;99.90;;;;;;4990768;28;20081;-72
2022/06/01 05:03:06;;;;;;;0.38;0.38;;;13.50;99.90;;;;;;4992697;28;20030;-72
2022/06/01 05:05:36;;;;;;;0.10;0.10;;;13.50;99.90;;;;;;4991056;28;20126;-70
2022/06/01 05:08:09;;;;;;;0.00;0.00;;;13.70;99.90;;;;;;4992864;28;20082;-72
2022/06/01 05:10:35;;;;;;;0.03;0.03;;;13.80;99.90;;;;;;4984278;28;20088;-71
2022/06/01 05:13:02;;;;;;;0.13;0.13;;;13.80;99.90;;;;;;5007440;28;20036;-72
2022/06/01 05:15:28;;;;;;;0.10;0.10;;;13.90;99.90;;;;;;4982294;28;20042;-72
2022/06/01 05:17:53;;;;;;;0.15;0.15;;;14.00;99.90;;;;;;4972966;28;20037;-72
2022/06/01 05:20:19;;;;;;;1.85;0.95;;;13.90;99.90;;;;;;4972242;28;20039;-73
2022/06/01 05:22:45;;;;;;;10.05;4.85;;;14.00;99.90;;;;;;4986882;28;20038;-72
2022/06/01 05:25:11;;;;;;;0.35;0.35;;;14.10;99.90;;;;;;4991098;28;20038;-72
2022/06/01 05:27:37;;;;;;;0.20;0.15;;;14.10;99.90;;;;;;4992413;28;20060;-73
2022/06/01 05:30:12;;;;;;;0.10;0.10;;;14.00;99.90;;;;;;4974048;28;20034;-74
2022/06/01 05:32:37;;;;;;;0.10;0.10;;;14.00;99.90;;;;;;4992154;28;20030;-73
2022/06/01 05:35:21;;;;;;;0.17;0.17;;;14.00;99.90;;;;;;4991928;28;20034;-73
2022/06/01 05:38:29;;;;;;;1.45;1.00;;;13.80;99.90;;;;;;4963426;28;20151;-74
2022/06/01 05:40:55;;;;;;;0.55;0.55;;;14.00;99.90;;;;;;4989644;28;20117;-73
2022/06/01 05:43:22;;;;;;;0.10;0.10;;;14.00;99.90;;;;;;4991489;28;20487;-72
2022/06/01 05:45:48;;;;;;;0.20;0.20;;;14.20;99.90;;;;;;4990118;28;20037;-72
2022/06/01 05:48:19;;;;;;;0.00;0.00;;;14.20;99.90;;;;;;4990893;28;20058;-71
2022/06/01 05:50:45;;;;;;;1.20;0.30;;;14.40;99.90;;;;;;4989484;28;20042;-73
2022/06/01 05:53:11;;;;;;;0.00;0.00;;;14.60;99.90;;;;;;4987386;28;20035;-72
2022/06/01 05:55:38;;;;;;;0.05;0.05;;;14.70;99.90;;;;;;4970719;28;20035;-72
2022/06/01 05:58:26;;;;;;;82.18;2.05;;;14.70;99.90;;;;;;4974247;28;20062;-73
2022/06/01 06:00:54;;;;;;;0.32;0.32;;;14.70;99.90;;;;;;4975620;28;20378;-72
2022/06/01 06:03:24;;;;;;;0.60;0.60;;;14.70;99.90;;;;;;4980864;28;20034;-69
2022/06/01 06:08:36;;;;;;;0.10;0.10;;;14.30;99.90;;;;;;4973795;28;20031;-73
2022/06/01 06:11:02;;;;;;;1.02;1.02;;;14.60;99.90;;;;;;4974628;28;20093;-73
2022/06/01 06:13:27;;;;;;;0.10;0.10;;;14.70;99.90;;;;;;4994921;28;20026;-72
2022/06/01 06:15:53;;;;;;;0.60;0.60;;;14.90;99.90;;;;;;4992644;28;20073;-73
2022/06/01 06:18:19;;;;;;;0.05;0.05;;;15.00;99.90;;;;;;4990344;28;20219;-73
2022/06/01 06:20:46;;;;;;;1.20;1.10;;;15.00;99.90;;;;;;4989277;28;20045;-73
2022/06/01 06:23:13;;;;;;;0.55;0.55;;;15.20;99.90;;;;;;4978995;28;20054;-73
2022/06/01 06:25:42;;;;;;;1.33;0.63;;;15.20;99.90;;;;;;4961274;28;20035;-75
2022/06/01 06:28:09;;;;;;;1.08;0.65;;;15.20;99.90;;;;;;4982452;28;20027;-73
2022/06/01 06:30:37;;;;;;;0.00;0.00;;;15.40;99.90;;;;;;4972784;28;20027;-72
2022/06/01 06:33:03;;;;;;;0.28;0.28;;;15.40;99.90;;;;;;4970466;28;20067;-82
2022/06/01 06:35:29;;;;;;;0.68;0.68;;;15.70;99.90;;;;;;4973939;28;20103;-79
2022/06/01 06:37:55;;;;;;;0.57;0.57;;;15.70;99.90;;;;;;4969625;28;20096;-80
2022/06/01 06:40:21;;;;;;;0.00;0.00;;;15.70;99.90;;;;;;4964925;28;20045;-82
2022/06/01 06:42:46;;;;;;;0.00;0.00;;;15.80;99.90;;;;;;4964750;28;20034;-83
2022/06/01 06:45:12;;;;;;;0.00;0.00;;;16.00;99.90;;;;;;4972140;28;20038;-82
2022/06/01 06:47:38;;;;;;;0.20;0.20;;;16.00;99.80;;;;;;4970293;28;20031;-81
2022/06/01 06:50:08;;;;;;;0.60;0.60;;;16.10;97.60;;;;;;4969292;28;20034;-82
2022/06/01 06:52:34;;;;;;;0.25;0.25;;;16.20;97.90;;;;;;4966734;28;20770;-81
2022/06/01 06:55:00;;;;;;;1.65;0.80;;;16.20;96.90;;;;;;4969884;28;20034;-81
2022/06/01 06:57:26;;;;;;;0.55;0.55;;;16.00;96.90;;;;;;4969957;28;20045;-81
2022/06/01 06:59:52;;;;;;;0.22;0.22;;;16.10;97.20;;;;;;4970757;28;20133;-81
2022/06/01 07:02:18;;;;;;;0.30;0.30;;;16.10;96.40;;;;;;4971247;28;20067;-82
2022/06/01 07:04:46;;;;;;;0.00;0.00;;;16.30;96.60;;;;;;4969649;28;20145;-80
2022/06/01 07:07:13;;;;;;;0.00;0.00;;;16.20;97.10;;;;;;4969925;28;20058;-79
2022/06/01 07:09:40;;;;;;;0.00;0.00;;;16.40;97.00;;;;;;4969567;28;20115;-80
2022/06/01 07:12:06;;;;;;;0.08;0.08;;;16.50;97.00;;;;;;4977098;28;20034;-82
2022/06/01 07:14:32;;;;;;;0.00;0.00;;;16.20;96.60;;;;;;4975816;28;20050;-82
2022/06/01 07:17:02;;;;;;;0.00;0.00;;;16.40;96.80;;;;;;4969269;28;20038;-82
2022/06/01 07:19:28;;;;;;;0.47;0.47;;;16.30;96.80;;;;;;4972795;28;20598;-82
2022/06/01 07:21:55;;;;;;;0.00;0.00;;;16.30;96.80;;;;;;4976880;28;20023;-81
2022/06/01 07:24:21;;;;;;;0.43;0.30;;;16.50;96.30;;;;;;4970652;28;20041;-82
2022/06/01 07:26:49;;;;;;;0.85;0.52;;;16.60;95.60;;;;;;4963185;28;20042;-81
2022/06/01 07:29:18;;;;;;;0.20;0.20;;;16.70;95.80;;;;;;4969068;28;20054;-81
2022/06/01 07:31:46;;;;;;;0.13;0.13;;;16.70;95.60;;;;;;4971756;28;20115;-81
2022/06/01 07:34:12;;;;;;;0.17;0.17;;;16.80;95.90;;;;;;4974178;28;20031;-81
2022/06/01 07:36:38;;;;;;;0.00;0.00;;;16.90;96.00;;;;;;4973071;28;20042;-81
2022/06/01 07:44:49;;;;;;;0.00;0.00;;;17.30;95.30;;;;;;4972346;28;20041;-81
2022/06/01 07:47:15;;;;;;;4.95;0.52;;;17.50;94.70;;;;;;4974795;28;20034;-82
2022/06/01 07:49:41;;;;;;;7.38;2.38;;;17.60;94.30;;;;;;4988059;28;20050;-82
2022/06/01 07:52:12;;;;;;;0.10;0.10;;;17.70;93.50;;;;;;4976862;28;20395;-83
2022/06/01 07:54:41;;;;;;;0.00;0.00;;;17.80;93.40;;;;;;4974602;28;20657;-82
2022/06/01 07:57:08;;;;;;;0.45;0.45;;;17.90;93.10;;;;;;4972727;28;20042;-81
2022/06/01 07:59:34;;;;;;;0.00;0.00;;;17.90;91.50;;;;;;4973186;28;21450;-81
2022/06/01 08:02:05;;;;;;;0.00;0.00;;;18.00;91.60;;;;;;4976954;28;20054;-82
2022/06/01 08:04:32;;;;;;;0.38;0.25;;;18.10;91.20;;;;;;4983668;28;20026;-81
2022/06/01 08:06:58;;;;;;;0.00;0.00;;;18.20;90.40;;;;;;4974650;28;20026;-82
2022/06/01 08:09:24;;;;;;;0.05;0.05;;;18.30;89.50;;;;;;4972663;28;20022;-81
2022/06/01 08:14:35;;;;;;;0.00;0.00;;;18.20;90.10;;;;;;4974344;28;20054;-81
2022/06/01 08:17:01;;;;;;;0.00;0.00;;;18.40;90.10;;;;;;4977819;28;20514;-81
2022/06/01 08:19:27;;;;;;;0.20;0.20;;;18.20;89.90;;;;;;4975381;28;20035;-81
2022/06/01 08:21:52;;;;;;;0.00;0.00;;;18.20;90.30;;;;;;4981163;28;20042;-81
2022/06/01 08:24:19;;;;;;;0.00;0.00;;;18.30;88.90;;;;;;4977485;28;20095;-80
2022/06/01 08:26:44;;;;;;;0.00;0.00;;;18.30;89.00;;;;;;4978967;28;20057;-81
2022/06/01 08:29:10;;;;;;;0.10;0.10;;;18.40;89.40;;;;;;4972125;28;20074;-80
2022/06/01 08:31:36;;;;;;;0.00;0.00;;;18.70;88.70;;;;;;4973284;28;20372;-80
2022/06/01 08:34:04;;;;;;;0.00;0.00;;;18.80;86.90;;;;;;4974113;28;20035;-79
2022/06/01 08:36:30;;;;;;;0.00;0.00;;;18.70;87.00;;;;;;4970505;28;20038;-80
2022/06/01 08:38:56;;;;;;;0.00;0.00;;;18.80;87.70;;;;;;4973604;28;20023;-80
2022/06/01 08:41:30;;;;;;;0.00;0.00;;;18.80;85.80;;;;;;4969714;28;20035;-79
2022/06/01 08:44:03;;;;;;;0.00;0.00;;;19.10;87.10;;;;;;4972236;28;20038;-79
2022/06/01 08:46:32;;;;;;;0.28;0.28;;;19.10;86.90;;;;;;4971590;28;20031;-80
2022/06/01 08:49:09;;;;;;;0.10;0.10;;;19.10;86.00;;;;;;4956082;28;20061;-80
2022/06/01 08:51:35;;;;;;;0.00;0.00;;;19.10;86.30;;;;;;4975128;28;20562;-80
2022/06/01 08:54:01;;;;;;;0.17;0.17;;;19.10;86.70;;;;;;4973533;28;20034;-80
2022/06/01 08:56:43;;;;;;;4.85;1.13;;;19.10;85.30;;;;;;4971425;28;20034;-80
2022/06/01 08:59:25;;;;;;;0.00;0.00;;;19.20;85.70;;;;;;4971721;28;20540;-80
2022/06/01 09:02:09;;;;;;;0.55;0.30;;;19.30;85.00;;;;;;4973076;28;20042;-80
2022/06/01 09:04:55;;;;;;;0.00;0.00;;;19.40;84.80;;;;;;4971748;28;20502;-79
2022/06/01 09:07:33;;;;;;;0.00;0.00;;;19.30;84.30;;;;;;5004251;28;20035;-79
2022/06/01 09:10:42;;;;;;;0.10;0.10;;;19.20;84.40;;;;;;4969846;28;20081;-79
2022/06/01 09:13:23;;;;;;;1.35;1.17;;;19.20;85.10;;;;;;4972163;28;20042;-80
2022/06/01 09:16:05;;;;;;;0.17;0.17;;;19.40;84.30;;;;;;4972692;28;20096;-80
2022/06/01 09:18:47;;;;;;;0.10;0.10;;;19.50;83.90;;;;;;4970854;28;20157;-80
2022/06/01 09:24:36;;;;;;;0.43;0.43;;;19.60;83.10;;;;;;4971005;28;20078;-80
2022/06/01 09:27:10;;;;;;;0.00;0.00;;;19.60;83.50;;;;;;4975168;28;20053;-81
2022/06/01 09:29:48;;;;;;;2.17;1.08;;;19.70;82.80;;;;;;4970959;28;20364;-81
2022/06/01 09:32:30;;;;;;;0.20;0.20;;;19.80;83.50;;;;;;4978037;28;20129;-82
2022/06/01 09:35:07;;;;;;;0.85;0.85;;;19.80;83.10;;;;;;4973659;28;20062;-78
2022/06/01 09:37:46;;;;;;;0.10;0.03;;;19.80;83.10;;;;;;4970768;28;20035;-76
2022/06/01 09:40:28;;;;;;;0.00;0.00;;;20.00;82.10;;;;;;4970567;28;20093;-76
2022/06/01 09:42:55;;;;;;;0.10;0.10;;;20.20;82.70;;;;;;4971944;28;20145;-78
2022/06/01 09:45:47;;;;;;;2.03;0.17;;;20.40;82.00;;;;;;4970791;28;20038;-78
2022/06/01 09:48:35;;;;;;;0.00;0.00;;;20.60;80.30;;;;;;4983881;28;20026;-77
2022/06/01 09:51:14;;;;;;;0.00;0.00;;;20.40;79.90;;;;;;4955291;28;20037;-78
2022/06/01 09:53:50;;;;;;;0.03;0.03;;;20.40;79.10;;;;;;4973455;28;20120;-77
2022/06/01 09:56:40;;;;;;;3.40;1.35;;;20.40;79.60;;;;;;4978781;28;20407;-79
2022/06/01 10:07:29;;;;;;;0.03;0.03;;;20.90;80.00;;;;;;4971310;28;20027;-76
2022/06/01 10:10:01;;;;;;;0.30;0.30;;;21.20;78.70;;;;;;4972164;28;20384;-78
2022/06/01 10:12:47;;;;;;;16.45;1.35;;;21.20;78.00;;;;;;4970364;28;20035;-78
2022/06/01 10:15:25;;;;;;;0.65;0.65;;;21.20;77.40;;;;;;4971904;28;20495;-77
2022/06/01 10:18:11;;;;;;;0.10;0.10;;;21.40;77.60;;;;;;4972801;28;20526;-79
2022/06/01 10:20:52;;;;;;;0.00;0.00;;;21.30;77.20;;;;;;4971582;28;20050;-84
2022/06/01 10:23:38;;;;;;;0.10;0.10;;;21.50;76.10;;;;;;4977247;28;20026;-83
2022/06/01 10:26:18;;;;;;;0.22;0.22;;;21.50;75.70;;;;;;4992228;23;20061;-69
2022/06/01 10:28:59;;;;;;;2.50;0.93;;;21.70;75.60;;;;;;4964574;28;20035;-80
2022/06/01 10:31:27;;;;;;;;;;;21.90;76.50;;;;;;4979808;28;20582;-74
2022/06/01 10:34:23;;;;;;;0.17;0.15;;;22.20;74.30;;;;;;4962025;28;19915;-65
2022/06/01 10:37:26;;;;;;;0.20;0.20;;;22.20;74.50;;;;;;4979391;28;20090;-68
2022/06/01 10:40:05;;;;;;;3.22;0.93;;;22.10;74.00;;;;;;4952624;28;20039;-71
2022/06/01 10:43:17;;;;;;;0.10;0.10;;;22.30;75.20;;;;;;4971466;28;20129;-71
2022/06/01 10:46:00;;;;;;;0.00;0.00;;;22.40;73.80;;;;;;4969595;28;20043;-72
2022/06/01 10:48:39;;;;;;;0.10;0.10;;;22.40;73.00;;;;;;4968682;28;20031;-69
2022/06/01 10:51:21;;;;;;;3.95;0.17;;;22.20;73.10;;;;;;4968807;28;20139;-69
2022/06/01 10:54:28;;;;;;;0.15;0.05;;;22.00;73.70;;;;;;4965742;28;20022;-69
2022/06/01 10:56:55;;;;;;;0.70;0.57;;;22.00;73.50;;;;;;4946840;28;20035;-70
2022/06/01 10:59:24;;;;;;;0.10;0.05;;;22.30;73.60;;;;;;4970658;28;20479;-70
2022/06/01 11:01:51;;;;;;;1.38;0.82;;;22.50;72.80;;;;;;4969744;28;20494;-70
2022/06/01 11:04:58;;;;;;;2.40;0.70;;;22.10;72.20;;;;;;4969947;28;20058;-70
2022/06/01 11:07:58;;;;;;;0.00;0.00;;;22.40;72.90;;;;;;4968453;28;20101;-70
2022/06/01 11:10:49;;;;;;;0.20;0.20;;;22.70;72.00;;;;;;4969862;28;20035;-70
2022/06/01 11:13:44;;;;;;;0.08;0.05;;;22.80;71.70;;;;;;4967934;28;20034;-70
2022/06/01 11:16:48;;;;;;;1.50;0.28;;;23.20;71.20;;;;;;4954211;28;20037;-70
2022/06/01 11:19:48;;;;;;;0.17;0.17;;;23.80;69.80;;;;;;4951011;28;20395;-70
2022/06/01 11:23:00;;;;;;;0.00;0.00;;;24.10;68.80;;;;;;4966385;28;20035;-69
2022/06/01 11:26:03;;;;;;;0.22;0.20;;;23.60;69.80;;;;;;4969459;28;20078;-69
2022/06/01 11:28:51;;;;;;;1.90;0.08;;;23.80;67.80;;;;;;4960816;28;20049;-70
2022/06/01 11:31:24;;;;;;;0.00;0.00;;;23.20;69.00;;;;;;4970625;28;20475;-70
2022/06/01 11:34:11;;;;;;;0.43;0.30;;;22.90;69.00;;;;;;4969548;28;20031;-70
2022/06/01 11:37:07;;;;;;;0.00;0.00;;;22.70;69.70;;;;;;4969212;28;20033;-70
2022/06/01 11:39:55;;;;;;;0.00;0.00;;;22.70;70.30;;;;;;4969925;28;20085;-70
2022/06/01 11:42:32;;;;;;;0.00;0.00;;;22.30;69.30;;;;;;4963248;28;20146;-70
2022/06/01 11:45:20;;;;;;;0.00;0.00;;;22.20;70.20;;;;;;4969721;28;20035;-70
2022/06/01 11:48:03;;;;;;;0.25;0.20;;;22.30;69.80;;;;;;4966503;28;20027;-70
2022/06/01 11:50:53;;;;;;;0.10;0.10;;;22.10;70.80;;;;;;4968893;28;20447;-69
2022/06/01 11:53:46;;;;;;;0.00;0.00;;;22.30;70.70;;;;;;4969029;28;20450;-69
2022/06/01 11:56:30;;;;;;;0.00;0.00;;;22.40;70.00;;;;;;4965419;28;20037;-69
2022/06/01 11:59:02;;;;;;;0.00;0.00;;;22.30;69.90;;;;;;4969899;28;20073;-70
2022/06/01 12:01:49;;;;;;;0.00;0.00;;;22.40;70.60;;;;;;4967439;28;20085;-69
2022/06/01 12:04:39;;;;;;;0.00;0.00;;;22.40;66.20;;;;;;4967869;28;20033;-69
2022/06/01 12:07:33;;;;;;;0.70;0.30;;;22.80;66.20;;;;;;4966564;28;20120;-70
2022/06/01 12:10:49;;;;;;;0.15;0.10;;;23.60;64.60;;;;;;4968053;28;20495;-70
2022/06/01 12:13:24;;;;;;;0.08;0.08;;;24.10;63.80;;;;;;4957592;28;20542;-70
2022/06/01 12:16:22;;;;;;;0.00;0.00;;;24.40;62.20;;;;;;4952616;28;20051;-70
2022/06/01 12:19:29;;;;;;;0.00;0.00;;;24.20;60.80;;;;;;4954015;28;20035;-71
2022/06/01 12:22:03;;;;;;;11.68;4.85;;;24.10;61.30;;;;;;4969957;28;20483;-69
2022/06/01 12:30:45;;;;;;;0.00;0.00;;;24.10;57.90;;;;;;4969334;28;20122;-70
2022/06/01 12:33:12;;;;;;;0.10;0.10;;;24.50;59.20;;;;;;4954722;28;20035;-70
2022/06/01 12:35:58;;;;;;;0.00;0.00;;;24.60;59.30;;;;;;4971285;28;20524;-70
2022/06/01 12:38:37;;;;;;;21.65;2.67;;;24.50;59.70;;;;;;4952725;28;20139;-69
2022/06/01 12:41:21;;;;;;;0.00;0.00;;;24.40;59.60;;;;;;4954535;28;20063;-70
2022/06/01 12:43:54;;;;;;;1.20;1.00;;;24.40;55.40;;;;;;4955888;28;20101;-70
2022/06/01 12:46:28;;;;;;;0.20;0.13;;;24.60;56.00;;;;;;4979652;28;20069;-70
2022/06/01 12:49:37;;;;;;;0.20;0.20;;;24.60;56.10;;;;;;4962465;28;20054;-70
2022/06/01 12:52:20;;;;;;;0.08;0.08;;;24.60;58.00;;;;;;4971661;28;20062;-70
2022/06/01 12:55:04;;;;;;;0.00;0.00;;;24.70;58.90;;;;;;4977754;28;20126;-71
2022/06/01 12:57:41;;;;;;;0.00;0.00;;;25.00;56.40;;;;;;4972671;28;20031;-69
2022/06/01 13:00:18;;;;;;;0.00;0.00;;;24.40;57.40;;;;;;4954852;28;20038;-72
2022/06/01 13:02:45;;;;;;;0.00;0.00;;;24.30;57.20;;;;;;4969378;28;20047;-71
2022/06/01 13:05:35;;;;;;;0.38;0.38;;;24.60;57.60;;;;;;4972281;28;20035;-72
2022/06/01 13:08:04;;;;;;;0.08;0.08;;;24.60;57.30;;;;;;4972161;28;20442;-72
2022/06/01 13:10:34;;;;;;;0.00;0.00;;;24.70;56.70;;;;;;4970308;28;20035;-71
2022/06/01 13:13:07;;;;;;;;;;;24.90;56.50;;;;;;4987124;28;20093;-71
2022/06/01 13:15:34;;;;;;;0.00;0.00;;;24.60;56.50;;;;;;4971565;28;19921;-71
2022/06/01 13:18:04;;;;;;;0.50;0.47;;;24.70;57.00;;;;;;4971160;28;20035;-71
2022/06/01 13:20:38;;;;;;;0.17;0.17;;;24.50;57.50;;;;;;4969167;28;20046;-70
2022/06/01 13:23:25;;;;;;;0.20;0.05;;;24.50;56.90;;;;;;4970685;28;20035;-71
2022/06/01 13:25:52;;;;;;;0.00;0.00;;;24.60;57.50;;;;;;4972383;28;20066;-71
2022/06/01 13:28:19;;;;;;;0.47;0.47;;;24.80;57.00;;;;;;4971898;28;20065;-71
2022/06/01 13:30:46;;;;;;;0.00;0.00;;;24.80;56.70;;;;;;4971879;28;20644;-71
2022/06/01 13:33:35;;;;;;;0.00;0.00;;;24.60;57.60;;;;;;4970903;28;20022;-71
2022/06/01 13:36:07;;;;;;;0.00;0.00;;;25.10;57.60;;;;;;4972947;28;20478;-71
2022/06/01 13:38:49;;;;;;;0.00;0.00;;;25.50;57.00;;;;;;4970433;28;20031;-71
2022/06/01 13:41:33;;;;;;;0.22;0.22;;;25.50;56.40;;;;;;4972355;28;20034;-70
2022/06/01 13:44:02;;;;;;;0.00;0.00;;;25.80;56.00;;;;;;4971546;28;20030;-71
2022/06/01 13:46:28;;;;;;;1.33;0.38;;;25.40;55.90;;;;;;4971268;28;20652;-71
2022/06/01 13:48:55;;;;;;;0.00;0.00;;;25.90;55.10;;;;;;4971773;28;20038;-70
2022/06/01 13:51:33;;;;;;;0.00;0.00;;;25.40;54.00;;;;;;4971783;28;20035;-70
2022/06/01 13:54:01;;;;;;;0.20;0.20;;;24.90;54.70;;;;;;4972190;28;20027;-70
2022/06/01 13:56:44;;;;;;;0.05;0.05;;;24.20;57.00;;;;;;4954554;28;20368;-70